Time;durP1;ratioP1;P1;durP2;ratioP2;P2;SDS_P1;SDS_P2;PMS_P1;PMS_P2;Temp;Humidity;BMP_temperature;BMP_pressure;BME280_temperature;BME280_humidity;BME280_pressure;Samples;Min_cycle;Max_cycle;Signal;HPM_P1;HPM_P2
2022/08/04 00:00:22;;;;;;;7.15;2.60;;;;;;;;;;5013920;28;20212;-63
2022/08/04 00:02:52;;;;;;;6.03;2.75;;;;;;;;;;5014791;28;20212;-62
2022/08/04 00:05:21;;;;;;;11.52;2.90;;;;;;;;;;5014437;28;20314;-63
2022/08/04 00:07:47;;;;;;;6.85;2.88;;;;;;;;;;5014148;28;20216;-62
2022/08/04 00:10:12;;;;;;;7.90;2.80;;;;;;;;;;5014509;28;20282;-62
2022/08/04 00:12:41;;;;;;;6.80;3.10;;;;;;;;;;5013396;28;20248;-62
2022/08/04 00:15:07;;;;;;;5.70;2.95;;;;;;;;;;5013670;28;20265;-63
2022/08/04 00:17:37;;;;;;;6.97;2.70;;;;;;;;;;5013297;28;20533;-62
2022/08/04 00:20:04;;;;;;;6.47;2.63;;;;;;;;;;5014538;28;20362;-63
2022/08/04 00:22:29;;;;;;;6.68;2.63;;;;;;;;;;5013739;28;20208;-62
2022/08/04 00:24:55;;;;;;;6.15;2.60;;;;;;;;;;5014729;28;20222;-62
2022/08/04 00:27:20;;;;;;;5.28;2.45;;;;;;;;;;5014044;28;20224;-63
2022/08/04 00:29:46;;;;;;;7.57;2.70;;;;;;;;;;5013851;28;20212;-62
2022/08/04 00:32:11;;;;;;;8.40;2.80;;;;;;;;;;5013972;28;20213;-63
2022/08/04 00:34:37;;;;;;;7.22;2.90;;;;;;;;;;5014410;28;20283;-63
2022/08/04 00:37:02;;;;;;;8.15;3.22;;;;;;;;;;5013157;28;20213;-63
2022/08/04 00:39:27;;;;;;;6.30;2.70;;;;;;;;;;5014342;28;20212;-62
2022/08/04 00:42:12;;;;;;;7.03;2.88;;;;;;;;;;5013017;28;20216;-63
2022/08/04 00:44:37;;;;;;;5.95;3.00;;;;;;;;;;5013223;28;20247;-62
2022/08/04 00:47:18;;;;;;;8.13;3.17;;;;;;;;;;5013925;28;20247;-62
2022/08/04 00:49:43;;;;;;;11.32;3.38;;;;;;;;;;5012050;28;20212;-62
2022/08/04 00:52:18;;;;;;;6.97;3.00;;;;;;;;;;5013441;28;20302;-62
2022/08/04 00:54:50;;;;;;;7.18;2.95;;;;;;;;;;5012709;28;20287;-63
2022/08/04 00:57:15;;;;;;;6.43;2.80;;;;;;;;;;5012968;28;20239;-62
2022/08/04 00:59:45;;;;;;;6.88;3.30;;;;;;;;;;5013910;28;20216;-62
2022/08/04 01:02:16;;;;;;;6.75;2.88;;;;;;;;;;5013427;28;20763;-62
2022/08/04 01:04:48;;;;;;;6.10;2.97;;;;;;;;;;5012592;28;20232;-62
2022/08/04 01:07:19;;;;;;;6.10;3.00;;;;;;;;;;5013426;28;20244;-62
2022/08/04 01:09:54;;;;;;;7.22;3.15;;;;;;;;;;5013821;28;20216;-62
2022/08/04 01:12:39;;;;;;;7.82;3.20;;;;;;;;;;5011248;28;20228;-62
2022/08/04 01:15:06;;;;;;;4.50;2.90;;;;;;;;;;5012059;28;20208;-62
2022/08/04 01:17:35;;;;;;;9.88;3.00;;;;;;;;;;5012957;28;20295;-62
2022/08/04 01:20:07;;;;;;;8.88;3.00;;;;;;;;;;5013540;28;20578;-62
2022/08/04 01:22:39;;;;;;;5.82;3.00;;;;;;;;;;5013541;28;20262;-62
2022/08/04 01:25:23;;;;;;;6.30;2.83;;;;;;;;;;5011091;28;20217;-63
2022/08/04 01:27:52;;;;;;;5.63;2.63;;;;;;;;;;5013511;28;20583;-62
2022/08/04 01:30:18;;;;;;;11.20;3.53;;;;;;;;;;5011643;28;20216;-63
2022/08/04 01:32:46;;;;;;;7.43;3.05;;;;;;;;;;5012754;28;20290;-62
2022/08/04 01:35:14;;;;;;;6.07;2.90;;;;;;;;;;5012672;28;20308;-63
2022/08/04 01:37:42;;;;;;;8.10;2.72;;;;;;;;;;5012155;28;20215;-63
2022/08/04 01:40:07;;;;;;;6.90;2.70;;;;;;;;;;5011988;28;20671;-64
2022/08/04 01:42:34;;;;;;;7.25;3.20;;;;;;;;;;5013345;28;20250;-63
2022/08/04 01:44:59;;;;;;;4.70;2.85;;;;;;;;;;4984303;28;20228;-63
2022/08/04 01:47:25;;;;;;;6.07;2.85;;;;;;;;;;4999350;28;20213;-63
2022/08/04 01:49:50;;;;;;;7.47;3.17;;;;;;;;;;5001118;28;20247;-63
2022/08/04 01:52:16;;;;;;;7.95;3.00;;;;;;;;;;4993424;28;20255;-63
2022/08/04 01:54:41;;;;;;;5.75;2.90;;;;;;;;;;4972965;28;20225;-63
2022/08/04 01:57:08;;;;;;;8.30;2.80;;;;;;;;;;4974929;28;20239;-63
2022/08/04 01:59:33;;;;;;;7.60;3.20;;;;;;;;;;4979377;28;20763;-64
2022/08/04 02:01:58;;;;;;;6.35;2.97;;;;;;;;;;4984539;28;20766;-63
2022/08/04 02:04:24;;;;;;;7.07;3.50;;;;;;;;;;4983097;28;20223;-63
2022/08/04 02:06:59;;;;;;;5.63;2.67;;;;;;;;;;4982156;28;20772;-63
2022/08/04 02:09:28;;;;;;;6.10;2.60;;;;;;;;;;5001774;28;20216;-63
2022/08/04 02:12:00;;;;;;;5.95;2.47;;;;;;;;;;5002616;28;20806;-63
2022/08/04 02:14:39;;;;;;;5.53;2.88;;;;;;;;;;4997636;28;20458;-63
2022/08/04 02:17:08;;;;;;;7.68;2.80;;;;;;;;;;4993852;28;20228;-63
2022/08/04 02:19:35;;;;;;;6.80;3.00;;;;;;;;;;4993654;28;20228;-63
2022/08/04 02:22:02;;;;;;;6.25;3.20;;;;;;;;;;4997357;28;20220;-63
2022/08/04 02:24:27;;;;;;;6.35;2.58;;;;;;;;;;5001879;28;20218;-63
2022/08/04 02:26:53;;;;;;;6.05;2.97;;;;;;;;;;5002588;28;20217;-63
2022/08/04 02:29:19;;;;;;;6.70;2.97;;;;;;;;;;5001390;28;20247;-63
2022/08/04 02:31:54;;;;;;;5.72;3.15;;;;;;;;;;5002273;28;20231;-63
2022/08/04 02:34:23;;;;;;;5.93;2.65;;;;;;;;;;4997614;28;20307;-63
2022/08/04 02:36:49;;;;;;;6.15;2.75;;;;;;;;;;4980323;28;20260;-63
2022/08/04 02:39:16;;;;;;;6.45;3.00;;;;;;;;;;4992140;28;20208;-63
2022/08/04 02:41:41;;;;;;;5.63;2.75;;;;;;;;;;4994153;28;20212;-63
2022/08/04 02:44:07;;;;;;;6.20;2.75;;;;;;;;;;4995270;28;20259;-63
2022/08/04 02:46:33;;;;;;;6.32;2.80;;;;;;;;;;5002342;28;20220;-63
2022/08/04 02:49:00;;;;;;;5.22;2.63;;;;;;;;;;5001496;28;20222;-63
2022/08/04 02:51:27;;;;;;;8.00;3.22;;;;;;;;;;5000146;28;20223;-63
2022/08/04 02:53:54;;;;;;;7.70;3.05;;;;;;;;;;4983739;28;20234;-63
2022/08/04 02:56:19;;;;;;;5.30;3.38;;;;;;;;;;4999446;28;20213;-63
2022/08/04 02:58:48;;;;;;;6.53;2.60;;;;;;;;;;5000853;28;20220;-63
2022/08/04 03:01:13;;;;;;;7.22;2.90;;;;;;;;;;4993828;28;20208;-63
2022/08/04 03:03:41;;;;;;;8.00;2.58;;;;;;;;;;4989156;28;20240;-64
2022/08/04 03:06:28;;;;;;;5.30;2.75;;;;;;;;;;4974320;28;20790;-64
2022/08/04 03:09:04;;;;;;;7.25;2.35;;;;;;;;;;5000442;28;20223;-63
2022/08/04 03:11:36;;;;;;;7.88;2.72;;;;;;;;;;4999946;28;20338;-63
2022/08/04 03:14:05;;;;;;;9.35;2.72;;;;;;;;;;5001837;28;20228;-63
2022/08/04 03:16:39;;;;;;;9.40;2.78;;;;;;;;;;5000799;28;20689;-63
2022/08/04 03:19:18;;;;;;;8.63;2.53;;;;;;;;;;5002591;28;20215;-63
2022/08/04 03:21:50;;;;;;;6.95;2.50;;;;;;;;;;5003349;28;20641;-63
2022/08/04 03:24:22;;;;;;;7.95;2.60;;;;;;;;;;4996569;28;20501;-62
2022/08/04 03:26:59;;;;;;;6.85;2.90;;;;;;;;;;4997622;28;20570;-63
2022/08/04 03:29:39;;;;;;;6.65;2.90;;;;;;;;;;4997645;28;20298;-63
2022/08/04 03:32:11;;;;;;;8.07;2.70;;;;;;;;;;5003027;28;20703;-63
2022/08/04 03:34:46;;;;;;;7.45;2.60;;;;;;;;;;4996720;28;20221;-62
2022/08/04 03:37:28;;;;;;;8.15;2.70;;;;;;;;;;4985592;28;20225;-63
2022/08/04 03:39:54;;;;;;;7.35;2.45;;;;;;;;;;5002668;28;20219;-63
2022/08/04 03:42:26;;;;;;;8.30;2.50;;;;;;;;;;5004547;28;20300;-63
2022/08/04 03:45:09;;;;;;;8.57;2.80;;;;;;;;;;5002771;28;20417;-64
2022/08/04 03:47:53;;;;;;;8.88;2.72;;;;;;;;;;4996904;28;20212;-64
2022/08/04 03:50:26;;;;;;;7.35;2.50;;;;;;;;;;4996821;28;21236;-64
2022/08/04 03:53:08;;;;;;;6.03;2.53;;;;;;;;;;4987846;28;20244;-64
2022/08/04 03:55:38;;;;;;;7.15;2.17;;;;;;;;;;5003024;28;20323;-64
2022/08/04 03:58:15;;;;;;;5.50;2.30;;;;;;;;;;5005053;28;20295;-64
2022/08/04 04:00:59;;;;;;;7.45;2.72;;;;;;;;;;5004572;28;20691;-64
2022/08/04 04:03:31;;;;;;;11.63;2.65;;;;;;;;;;5002054;28;20238;-64
2022/08/04 04:05:56;;;;;;;5.75;2.40;;;;;;;;;;5003116;28;20738;-64
2022/08/04 04:08:24;;;;;;;10.82;3.42;;;;;;;;;;4979229;28;20632;-64
2022/08/04 04:10:56;;;;;;;7.35;2.33;;;;;;;;;;4975311;28;20273;-65
2022/08/04 04:13:29;;;;;;;8.25;2.35;;;;;;;;;;4993960;28;20235;-64
2022/08/04 04:15:59;;;;;;;8.23;2.35;;;;;;;;;;5001050;28;20282;-64
2022/08/04 04:18:36;;;;;;;8.23;2.83;;;;;;;;;;5003991;28;20223;-64
2022/08/04 04:21:20;;;;;;;9.05;2.30;;;;;;;;;;5003716;28;20232;-65
2022/08/04 04:23:52;;;;;;;8.77;2.38;;;;;;;;;;5003996;28;20860;-64
2022/08/04 04:26:19;;;;;;;5.80;2.50;;;;;;;;;;5004183;28;20232;-64
2022/08/04 04:28:57;;;;;;;10.07;2.40;;;;;;;;;;5003573;28;20224;-64
2022/08/04 04:31:27;;;;;;;8.85;2.50;;;;;;;;;;4996467;28;20212;-64
2022/08/04 04:33:55;;;;;;;6.90;2.55;;;;;;;;;;4992223;28;20651;-64
2022/08/04 04:36:24;;;;;;;9.57;2.28;;;;;;;;;;4993462;28;20726;-65
2022/08/04 04:39:00;;;;;;;5.68;2.17;;;;;;;;;;5002986;28;20212;-65
2022/08/04 04:41:28;;;;;;;8.90;2.58;;;;;;;;;;5002434;28;21404;-65
2022/08/04 04:43:59;;;;;;;6.45;2.22;;;;;;;;;;5004509;28;20650;-63
2022/08/04 04:46:29;;;;;;;7.53;2.60;;;;;;;;;;5001475;28;20411;-63
2022/08/04 04:49:01;;;;;;;7.88;2.63;;;;;;;;;;5000114;28;20579;-61
2022/08/04 04:51:31;;;;;;;6.68;2.13;;;;;;;;;;4985436;28;20227;-61
2022/08/04 04:54:03;;;;;;;5.85;2.17;;;;;;;;;;4992544;28;20640;-62
2022/08/04 04:56:34;;;;;;;6.70;2.47;;;;;;;;;;4994874;28;20209;-61
2022/08/04 04:59:00;;;;;;;7.70;2.30;;;;;;;;;;4995447;28;20367;-62
2022/08/04 05:01:29;;;;;;;9.15;2.10;;;;;;;;;;5001329;28;20683;-63
2022/08/04 05:04:13;;;;;;;9.45;2.38;;;;;;;;;;4998664;28;20213;-62
2022/08/04 05:06:45;;;;;;;6.10;2.22;;;;;;;;;;4984066;28;20225;-62
2022/08/04 05:09:14;;;;;;;7.93;2.55;;;;;;;;;;4983929;28;20217;-62
2022/08/04 05:11:47;;;;;;;9.35;2.38;;;;;;;;;;5002963;28;20823;-64
2022/08/04 05:14:27;;;;;;;10.73;2.75;;;;;;;;;;5002911;28;20515;-61
2022/08/04 05:16:54;;;;;;;9.35;2.30;;;;;;;;;;4986045;28;20240;-60
2022/08/04 05:19:25;;;;;;;9.00;2.50;;;;;;;;;;4975112;28;20715;-61
2022/08/04 05:21:56;;;;;;;8.82;2.30;;;;;;;;;;4976370;28;20304;-61
2022/08/04 05:24:21;;;;;;;9.38;2.58;;;;;;;;;;4981446;28;20237;-61
2022/08/04 05:26:47;;;;;;;9.70;2.53;;;;;;;;;;4984144;28;20703;-61
2022/08/04 05:29:16;;;;;;;10.93;2.60;;;;;;;;;;5002660;28;20219;-61
2022/08/04 05:31:44;;;;;;;7.32;2.00;;;;;;;;;;5010238;28;20224;-60
2022/08/04 05:34:11;;;;;;;9.23;2.33;;;;;;;;;;5015961;28;20327;-61
2022/08/04 05:36:45;;;;;;;11.88;2.55;;;;;;;;;;5021665;28;20204;-61
2022/08/04 05:39:19;;;;;;;10.30;3.08;;;;;;;;;;5017034;28;20205;-61
2022/08/04 05:41:44;;;;;;;8.60;2.40;;;;;;;;;;5016564;28;20695;-61
2022/08/04 05:44:09;;;;;;;9.07;2.22;;;;;;;;;;5012859;28;20254;-61
2022/08/04 05:46:35;;;;;;;11.63;2.55;;;;;;;;;;5011262;28;20273;-61
2022/08/04 05:49:01;;;;;;;10.35;2.50;;;;;;;;;;5013076;28;20702;-61
2022/08/04 05:51:27;;;;;;;9.95;2.13;;;;;;;;;;5010761;28;20263;-61
2022/08/04 05:53:54;;;;;;;9.63;2.03;;;;;;;;;;5009112;28;20279;-61
2022/08/04 05:56:19;;;;;;;8.75;2.20;;;;;;;;;;5012621;28;20224;-61
2022/08/04 05:58:44;;;;;;;7.68;2.03;;;;;;;;;;5011725;28;20205;-61
2022/08/04 06:01:10;;;;;;;9.85;2.53;;;;;;;;;;5011800;28;20220;-61
2022/08/04 06:03:35;;;;;;;12.25;2.40;;;;;;;;;;5012884;28;20266;-61
2022/08/04 06:06:00;;;;;;;5.90;2.10;;;;;;;;;;5010315;28;20255;-63
2022/08/04 06:08:26;;;;;;;8.68;2.50;;;;;;;;;;5012637;28;20247;-61
2022/08/04 06:10:52;;;;;;;10.73;2.50;;;;;;;;;;5012587;28;20220;-61
2022/08/04 06:13:18;;;;;;;9.68;2.55;;;;;;;;;;5011621;28;20247;-61
2022/08/04 06:15:44;;;;;;;9.48;2.40;;;;;;;;;;5013323;28;20235;-61
2022/08/04 06:18:10;;;;;;;7.15;2.42;;;;;;;;;;5012291;28;20216;-62
2022/08/04 06:20:35;;;;;;;11.57;2.85;;;;;;;;;;5010814;28;20204;-62
2022/08/04 06:23:02;;;;;;;9.32;2.67;;;;;;;;;;5012187;28;20319;-62
2022/08/04 06:25:28;;;;;;;7.22;2.50;;;;;;;;;;5011351;28;20219;-61
2022/08/04 06:27:54;;;;;;;10.60;2.70;;;;;;;;;;5010919;28;20208;-61
2022/08/04 06:30:19;;;;;;;12.15;2.90;;;;;;;;;;5011107;28;20582;-61
2022/08/04 06:32:46;;;;;;;12.95;3.30;;;;;;;;;;5012339;28;20227;-61
2022/08/04 06:35:13;;;;;;;9.20;2.90;;;;;;;;;;5010017;28;20205;-62
2022/08/04 06:37:38;;;;;;;8.57;2.90;;;;;;;;;;5012633;28;20277;-61
2022/08/04 06:40:04;;;;;;;10.73;2.92;;;;;;;;;;5011959;28;20291;-62
2022/08/04 06:42:29;;;;;;;9.57;3.10;;;;;;;;;;5009979;28;20577;-61
2022/08/04 06:44:55;;;;;;;9.43;3.20;;;;;;;;;;5012708;28;20213;-62
2022/08/04 06:47:21;;;;;;;13.20;2.85;;;;;;;;;;5010811;28;20212;-62
2022/08/04 06:49:47;;;;;;;11.98;2.88;;;;;;;;;;5010633;28;20212;-61
2022/08/04 06:52:16;;;;;;;11.60;3.33;;;;;;;;;;5010656;28;20259;-61
2022/08/04 06:54:42;;;;;;;7.57;3.15;;;;;;;;;;5014988;28;20228;-61
2022/08/04 06:57:07;;;;;;;11.68;3.40;;;;;;;;;;5010964;28;20224;-61
2022/08/04 06:59:32;;;;;;;13.30;3.95;;;;;;;;;;5014096;28;20600;-61
2022/08/04 07:01:57;;;;;;;11.02;3.28;;;;;;;;;;5015102;28;20271;-61
2022/08/04 07:04:23;;;;;;;8.25;3.10;;;;;;;;;;5013967;28;20615;-60
2022/08/04 07:06:48;;;;;;;11.55;4.13;;;;;;;;;;5013383;28;20577;-61
2022/08/04 07:09:13;;;;;;;10.55;3.20;;;;;;;;;;5013809;28;20239;-61
2022/08/04 07:11:39;;;;;;;10.45;3.42;;;;;;;;;;5014288;28;20226;-60
2022/08/04 07:14:04;;;;;;;11.43;3.80;;;;;;;;;;5014478;28;20228;-61
2022/08/04 07:16:29;;;;;;;16.10;3.63;;;;;;;;;;5012974;28;20681;-61
2022/08/04 07:18:55;;;;;;;10.88;3.58;;;;;;;;;;5014873;28;20208;-60
2022/08/04 07:21:21;;;;;;;17.15;3.58;;;;;;;;;;5013153;28;20217;-61
2022/08/04 07:23:46;;;;;;;11.57;3.60;;;;;;;;;;5013937;28;20227;-61
2022/08/04 07:26:14;;;;;;;11.02;3.45;;;;;;;;;;5013982;28;20679;-61
2022/08/04 07:28:40;;;;;;;13.18;3.65;;;;;;;;;;5014500;28;20744;-61
2022/08/04 07:31:05;;;;;;;10.60;3.60;;;;;;;;;;5013504;28;20216;-61
2022/08/04 07:33:31;;;;;;;9.85;3.30;;;;;;;;;;5013266;28;20237;-61
2022/08/04 07:35:56;;;;;;;11.48;3.55;;;;;;;;;;5014506;28;20287;-61
2022/08/04 07:38:21;;;;;;;15.07;3.95;;;;;;;;;;5013185;28;20331;-61
2022/08/04 07:40:47;;;;;;;10.20;3.55;;;;;;;;;;5014223;28;20224;-61
2022/08/04 07:43:13;;;;;;;11.43;3.65;;;;;;;;;;5013637;28;20291;-61
2022/08/04 07:45:39;;;;;;;13.65;3.67;;;;;;;;;;5012482;28;20301;-61
2022/08/04 07:48:05;;;;;;;13.63;3.60;;;;;;;;;;5013926;28;20284;-61
2022/08/04 07:50:31;;;;;;;13.18;3.80;;;;;;;;;;5014248;28;20220;-61
2022/08/04 07:52:56;;;;;;;9.93;4.10;;;;;;;;;;5013126;28;20266;-61
2022/08/04 07:55:22;;;;;;;12.07;3.30;;;;;;;;;;5013580;28;20208;-61
2022/08/04 07:57:47;;;;;;;9.63;3.45;;;;;;;;;;5012521;28;20298;-61
2022/08/04 08:00:13;;;;;;;11.15;3.42;;;;;;;;;;5012780;28;20311;-61
2022/08/04 08:02:40;;;;;;;14.43;3.80;;;;;;;;;;5014124;28;20251;-61
2022/08/04 08:05:06;;;;;;;10.00;3.35;;;;;;;;;;5011010;28;20224;-61
2022/08/04 08:07:32;;;;;;;10.52;3.20;;;;;;;;;;5011718;28;20227;-61
2022/08/04 08:09:57;;;;;;;10.00;3.30;;;;;;;;;;5012379;28;20805;-61
2022/08/04 08:12:22;;;;;;;14.93;3.85;;;;;;;;;;5013051;28;20278;-61
2022/08/04 08:14:47;;;;;;;13.23;3.42;;;;;;;;;;5012997;28;20698;-62
2022/08/04 08:17:13;;;;;;;10.65;3.28;;;;;;;;;;5012088;28;20571;-61
2022/08/04 08:19:38;;;;;;;10.25;2.97;;;;;;;;;;5012871;28;20216;-61
2022/08/04 08:22:03;;;;;;;8.40;2.72;;;;;;;;;;5013246;28;20217;-62
2022/08/04 08:24:30;;;;;;;9.57;2.95;;;;;;;;;;5011923;28;20216;-61
2022/08/04 08:26:55;;;;;;;12.23;3.03;;;;;;;;;;5012453;28;20216;-61
2022/08/04 08:29:21;;;;;;;10.45;2.95;;;;;;;;;;5013039;28;20271;-61
2022/08/04 08:31:46;;;;;;;11.82;3.22;;;;;;;;;;5011936;28;20267;-61
2022/08/04 08:34:12;;;;;;;10.57;2.72;;;;;;;;;;5012073;28;20225;-61
2022/08/04 08:36:40;;;;;;;12.07;3.03;;;;;;;;;;5013294;28;20219;-61
2022/08/04 08:39:09;;;;;;;8.23;2.67;;;;;;;;;;5012689;28;20220;-61
2022/08/04 08:41:45;;;;;;;9.73;2.83;;;;;;;;;;5012204;28;20311;-61
2022/08/04 08:44:17;;;;;;;8.57;2.60;;;;;;;;;;5012514;28;20216;-61
2022/08/04 08:46:52;;;;;;;9.02;2.55;;;;;;;;;;5013292;28;20220;-61
2022/08/04 08:49:23;;;;;;;10.30;2.65;;;;;;;;;;5010862;28;20227;-61
2022/08/04 08:51:51;;;;;;;8.98;2.70;;;;;;;;;;5011780;28;20216;-61
2022/08/04 08:54:27;;;;;;;10.82;2.72;;;;;;;;;;5011207;28;20228;-61
2022/08/04 08:57:06;;;;;;;12.25;2.38;;;;;;;;;;5010731;28;20216;-61
2022/08/04 08:59:36;;;;;;;10.48;2.58;;;;;;;;;;5011267;28;20216;-61
2022/08/04 09:02:06;;;;;;;9.45;2.40;;;;;;;;;;5012163;28;20227;-61
2022/08/04 09:04:50;;;;;;;9.82;2.83;;;;;;;;;;5012500;28;20236;-61
2022/08/04 09:07:22;;;;;;;6.85;2.30;;;;;;;;;;5013652;28;20290;-61
2022/08/04 09:09:55;;;;;;;8.00;2.00;;;;;;;;;;5012936;28;20220;-61
2022/08/04 09:12:23;;;;;;;14.45;2.50;;;;;;;;;;5012338;28;20667;-61
2022/08/04 09:14:51;;;;;;;9.68;2.80;;;;;;;;;;5012482;28;20305;-61
2022/08/04 09:17:35;;;;;;;12.60;2.80;;;;;;;;;;5012421;28;20208;-61
2022/08/04 09:20:09;;;;;;;11.10;2.75;;;;;;;;;;5013512;28;20224;-64
2022/08/04 09:22:44;;;;;;;11.93;2.45;;;;;;;;;;5012511;28;20236;-60
2022/08/04 09:25:19;;;;;;;9.05;2.53;;;;;;;;;;5011513;28;20239;-61
2022/08/04 09:27:51;;;;;;;14.55;2.58;;;;;;;;;;5012596;28;20216;-61
2022/08/04 09:30:18;;;;;;;9.05;2.13;;;;;;;;;;5012399;28;20220;-61
2022/08/04 09:32:50;;;;;;;9.38;2.33;;;;;;;;;;5012004;28;20573;-62
2022/08/04 09:35:18;;;;;;;10.88;2.78;;;;;;;;;;5011812;28;20302;-61
2022/08/04 09:37:56;;;;;;;9.32;2.28;;;;;;;;;;5011553;28;20223;-61
2022/08/04 09:40:26;;;;;;;7.10;2.15;;;;;;;;;;5011621;28;20212;-61
2022/08/04 09:43:02;;;;;;;8.40;2.50;;;;;;;;;;5011986;28;20235;-61
2022/08/04 09:45:31;;;;;;;7.07;2.38;;;;;;;;;;5010816;28;20220;-61
2022/08/04 09:47:57;;;;;;;9.38;2.65;;;;;;;;;;5012152;28;20263;-62
2022/08/04 09:50:29;;;;;;;6.32;2.25;;;;;;;;;;5012936;28;20231;-62
2022/08/04 09:52:57;;;;;;;10.23;2.55;;;;;;;;;;5012335;28;20316;-62
2022/08/04 09:55:41;;;;;;;8.07;2.75;;;;;;;;;;5012497;28;20209;-61
2022/08/04 09:58:08;;;;;;;10.93;2.92;;;;;;;;;;5011908;28;20594;-62
2022/08/04 10:00:34;;;;;;;9.02;2.80;;;;;;;;;;5011768;28;20208;-61
2022/08/04 10:03:01;;;;;;;8.82;2.65;;;;;;;;;;5011811;28;20236;-61
2022/08/04 10:05:46;;;;;;;13.50;2.70;;;;;;;;;;5011703;28;20690;-61
2022/08/04 10:08:15;;;;;;;8.52;2.80;;;;;;;;;;5012269;28;20208;-62
2022/08/04 10:11:00;;;;;;;7.97;3.60;;;;;;;;;;5011685;28;20219;-60
2022/08/04 10:13:27;;;;;;;10.35;3.35;;;;;;;;;;5007035;28;20335;-62
2022/08/04 10:16:06;;;;;;;11.57;2.67;;;;;;;;;;5011702;28;20212;-62
2022/08/04 10:18:43;;;;;;;8.65;2.13;;;;;;;;;;5009791;28;20945;-62
2022/08/04 10:21:11;;;;;;;12.38;2.97;;;;;;;;;;5010605;28;20714;-62
2022/08/04 10:23:43;;;;;;;14.48;3.00;;;;;;;;;;5010455;28;20216;-62
2022/08/04 10:26:09;;;;;;;8.75;2.97;;;;;;;;;;5009053;28;20216;-62
2022/08/04 10:28:38;;;;;;;10.57;2.75;;;;;;;;;;5010969;28;20220;-62
2022/08/04 10:31:04;;;;;;;9.73;2.70;;;;;;;;;;5011022;28;20757;-62
2022/08/04 10:33:30;;;;;;;9.48;3.03;;;;;;;;;;5009536;28;20221;-62
2022/08/04 10:36:00;;;;;;;8.48;2.75;;;;;;;;;;5009020;28;20258;-62
2022/08/04 10:38:29;;;;;;;6.53;2.53;;;;;;;;;;5009494;28;20216;-62
2022/08/04 10:40:59;;;;;;;9.00;2.35;;;;;;;;;;5010610;28;20256;-62
2022/08/04 10:43:32;;;;;;;9.20;2.63;;;;;;;;;;5009278;28;20216;-62
2022/08/04 10:46:00;;;;;;;11.18;2.97;;;;;;;;;;5010259;28;20223;-62
2022/08/04 10:48:33;;;;;;;7.63;2.05;;;;;;;;;;5009160;28;20219;-62
2022/08/04 10:51:03;;;;;;;5.85;1.73;;;;;;;;;;5011427;28;20220;-62
2022/08/04 10:53:29;;;;;;;10.32;2.35;;;;;;;;;;5010969;28;20224;-61
2022/08/04 10:55:56;;;;;;;10.10;2.50;;;;;;;;;;5010629;28;20216;-62
2022/08/04 10:58:24;;;;;;;11.15;2.53;;;;;;;;;;5009337;28;20208;-62
2022/08/04 11:00:53;;;;;;;8.25;2.00;;;;;;;;;;5009658;28;20220;-62
2022/08/04 11:03:19;;;;;;;7.90;2.20;;;;;;;;;;5008838;28;20219;-62
2022/08/04 11:05:45;;;;;;;11.27;2.13;;;;;;;;;;5009874;28;20237;-62
2022/08/04 11:08:13;;;;;;;15.32;2.50;;;;;;;;;;5010305;28;20259;-62
2022/08/04 11:10:40;;;;;;;11.60;3.03;;;;;;;;;;5009511;28;20220;-61
2022/08/04 11:13:07;;;;;;;10.48;2.75;;;;;;;;;;5008954;28;20244;-62
2022/08/04 11:15:33;;;;;;;9.52;2.35;;;;;;;;;;5009152;28;20220;-61
2022/08/04 11:18:00;;;;;;;12.20;3.72;;;;;;;;;;5011341;28;20307;-61
2022/08/04 11:20:28;;;;;;;10.52;2.40;;;;;;;;;;5009583;28;20617;-62
2022/08/04 11:22:57;;;;;;;12.27;2.47;;;;;;;;;;5009145;28;20231;-61
2022/08/04 11:25:25;;;;;;;7.75;2.28;;;;;;;;;;5009333;28;20216;-61
2022/08/04 11:27:56;;;;;;;10.05;3.15;;;;;;;;;;5009430;28;20236;-61
2022/08/04 11:30:21;;;;;;;12.23;2.63;;;;;;;;;;5009849;28;20216;-61
2022/08/04 11:32:50;;;;;;;10.00;2.53;;;;;;;;;;5009505;28;20243;-61
2022/08/04 11:35:21;;;;;;;15.00;3.17;;;;;;;;;;5010808;28;20220;-61
2022/08/04 11:37:55;;;;;;;13.32;2.90;;;;;;;;;;5010158;28;20240;-61
2022/08/04 11:40:39;;;;;;;11.25;2.95;;;;;;;;;;4995003;28;20235;-61
2022/08/04 11:43:05;;;;;;;9.73;3.45;;;;;;;;;;5013367;28;20212;-62
2022/08/04 11:45:33;;;;;;;10.05;2.83;;;;;;;;;;5012842;28;20300;-61
2022/08/04 11:47:59;;;;;;;10.35;3.15;;;;;;;;;;5012887;28;20228;-62
2022/08/04 11:50:40;;;;;;;8.40;2.88;;;;;;;;;;5013595;28;20228;-62
2022/08/04 11:53:05;;;;;;;9.25;3.05;;;;;;;;;;5013193;28;20228;-62
2022/08/04 11:55:31;;;;;;;10.05;3.17;;;;;;;;;;5014326;28;20220;-62
2022/08/04 11:57:56;;;;;;;10.13;3.20;;;;;;;;;;5013112;28;20620;-62
2022/08/04 12:00:21;;;;;;;7.55;3.05;;;;;;;;;;5013458;28;20208;-61
2022/08/04 12:02:57;;;;;;;11.18;2.92;;;;;;;;;;5012520;28;20295;-61
2022/08/04 12:05:26;;;;;;;8.63;3.22;;;;;;;;;;5011276;28;20235;-61
2022/08/04 12:07:51;;;;;;;8.05;3.45;;;;;;;;;;5014064;28;20296;-61
2022/08/04 12:10:17;;;;;;;11.40;3.30;;;;;;;;;;5013513;28;20307;-61
2022/08/04 12:12:44;;;;;;;10.57;3.05;;;;;;;;;;5012623;28;20702;-61
2022/08/04 12:15:12;;;;;;;9.30;3.50;;;;;;;;;;5012097;28;20686;-62
2022/08/04 12:17:39;;;;;;;10.30;3.78;;;;;;;;;;5013829;28;20307;-61
2022/08/04 12:20:06;;;;;;;10.57;3.58;;;;;;;;;;5011202;28;20274;-62
2022/08/04 12:22:33;;;;;;;9.63;3.75;;;;;;;;;;5012403;28;20560;-61
2022/08/04 12:25:00;;;;;;;9.48;3.75;;;;;;;;;;5013625;28;20248;-61
2022/08/04 12:27:28;;;;;;;9.95;3.75;;;;;;;;;;5011354;28;20212;-61
2022/08/04 12:29:53;;;;;;;10.95;3.53;;;;;;;;;;5012175;28;20220;-61
2022/08/04 12:32:20;;;;;;;12.10;4.07;;;;;;;;;;5011298;28;20224;-59
2022/08/04 12:34:54;;;;;;;10.25;4.10;;;;;;;;;;5012923;28;20247;-60
2022/08/04 12:37:27;;;;;;;11.23;3.88;;;;;;;;;;5013145;28;20219;-60
2022/08/04 12:39:53;;;;;;;11.32;3.90;;;;;;;;;;5011353;28;20227;-59
2022/08/04 12:42:22;;;;;;;8.73;4.18;;;;;;;;;;5012343;28;20300;-59
2022/08/04 12:44:52;;;;;;;10.40;3.67;;;;;;;;;;5013293;28;20212;-59
2022/08/04 12:47:18;;;;;;;8.35;3.65;;;;;;;;;;5012030;28;20261;-59
2022/08/04 12:49:43;;;;;;;9.75;3.63;;;;;;;;;;5011691;28;20567;-59
2022/08/04 12:52:09;;;;;;;9.27;3.58;;;;;;;;;;5010852;28;20228;-59
2022/08/04 12:54:36;;;;;;;9.75;3.42;;;;;;;;;;5012452;28;20220;-59
2022/08/04 12:57:02;;;;;;;9.80;3.90;;;;;;;;;;5011072;28;20302;-60
2022/08/04 12:59:27;;;;;;;7.78;3.17;;;;;;;;;;5011692;28;20687;-59
2022/08/04 13:01:52;;;;;;;9.10;3.15;;;;;;;;;;5005661;28;20224;-59
2022/08/04 13:04:19;;;;;;;9.23;2.60;;;;;;;;;;4989844;28;20301;-61
2022/08/04 13:06:50;;;;;;;8.45;2.60;;;;;;;;;;4985966;28;20237;-60
2022/08/04 13:09:17;;;;;;;6.40;2.58;;;;;;;;;;4995535;28;20223;-59
2022/08/04 13:11:45;;;;;;;8.38;2.53;;;;;;;;;;5000202;28;20262;-59
2022/08/04 13:14:11;;;;;;;7.97;2.70;;;;;;;;;;5005499;28;20225;-59
2022/08/04 13:16:36;;;;;;;9.65;2.42;;;;;;;;;;5004566;28;20220;-59
2022/08/04 13:19:02;;;;;;;8.30;2.60;;;;;;;;;;5004812;28;20204;-60
2022/08/04 13:21:28;;;;;;;6.60;2.58;;;;;;;;;;4994627;28;20632;-59
2022/08/04 13:23:57;;;;;;;5.22;2.72;;;;;;;;;;4986814;28;20239;-59
2022/08/04 13:26:22;;;;;;;6.82;3.20;;;;;;;;;;4984134;28;20223;-60
2022/08/04 13:28:48;;;;;;;8.10;2.63;;;;;;;;;;4981089;28;20213;-59
2022/08/04 13:31:14;;;;;;;5.55;2.70;;;;;;;;;;4979869;28;20296;-59
2022/08/04 13:33:40;;;;;;;7.55;2.60;;;;;;;;;;4981923;28;20593;-59
2022/08/04 13:36:06;;;;;;;6.65;2.80;;;;;;;;;;5000494;28;20259;-60
2022/08/04 13:38:32;;;;;;;9.35;2.75;;;;;;;;;;4987182;28;20323;-59
2022/08/04 13:40:59;;;;;;;6.70;3.13;;;;;;;;;;4987127;28;20209;-59
2022/08/04 13:43:26;;;;;;;5.80;2.60;;;;;;;;;;4985905;28;20221;-59
2022/08/04 13:45:57;;;;;;;6.55;3.17;;;;;;;;;;4986746;28;20280;-59
2022/08/04 13:48:22;;;;;;;5.95;2.55;;;;;;;;;;4988114;28;20560;-60
2022/08/04 13:50:48;;;;;;;5.38;2.75;;;;;;;;;;4996230;28;20208;-59
2022/08/04 13:53:15;;;;;;;7.80;2.88;;;;;;;;;;4984886;28;20260;-59
2022/08/04 13:55:41;;;;;;;5.40;2.60;;;;;;;;;;4998169;28;20577;-59
2022/08/04 13:58:10;;;;;;;8.40;3.05;;;;;;;;;;5004281;28;20216;-60
2022/08/04 14:00:37;;;;;;;8.15;2.92;;;;;;;;;;5004089;28;20826;-59
2022/08/04 14:03:05;;;;;;;6.60;2.35;;;;;;;;;;5004588;28;20224;-60
2022/08/04 14:05:30;;;;;;;6.18;3.05;;;;;;;;;;4987976;28;20256;-60
2022/08/04 14:08:05;;;;;;;8.38;3.00;;;;;;;;;;5004773;28;20710;-59
2022/08/04 14:10:30;;;;;;;6.88;2.75;;;;;;;;;;5005075;28;20706;-60
2022/08/04 14:12:56;;;;;;;6.57;2.50;;;;;;;;;;4986300;28;20308;-59
2022/08/04 14:15:29;;;;;;;9.18;2.58;;;;;;;;;;4977571;28;20257;-59
2022/08/04 14:17:55;;;;;;;5.70;2.08;;;;;;;;;;4978840;28;20221;-59
2022/08/04 14:20:21;;;;;;;6.15;2.22;;;;;;;;;;5002513;28;20738;-59
2022/08/04 14:22:46;;;;;;;5.38;2.17;;;;;;;;;;5005289;28;20216;-60
2022/08/04 14:25:12;;;;;;;5.95;2.47;;;;;;;;;;4986924;28;20235;-59
2022/08/04 14:27:40;;;;;;;7.43;2.50;;;;;;;;;;4985861;28;20213;-59
2022/08/04 14:30:06;;;;;;;8.93;2.75;;;;;;;;;;4985936;28;20275;-60
2022/08/04 14:32:31;;;;;;;12.43;2.88;;;;;;;;;;4985426;28;20233;-59
2022/08/04 14:34:56;;;;;;;5.97;2.20;;;;;;;;;;4981909;28;20212;-59
2022/08/04 14:37:22;;;;;;;5.57;2.40;;;;;;;;;;4978104;28;20217;-59
2022/08/04 14:39:51;;;;;;;5.68;2.30;;;;;;;;;;4977588;28;20316;-59
2022/08/04 14:42:17;;;;;;;5.55;2.40;;;;;;;;;;5000327;28;20602;-59
2022/08/04 14:44:52;;;;;;;6.18;2.25;;;;;;;;;;4986452;28;20213;-59
2022/08/04 14:47:18;;;;;;;6.68;2.50;;;;;;;;;;4992638;28;20676;-59